• Join FlightAware (Why Join?)
  • Login
  • US Flag 
12:21AM EDT


 

Airport Tracker/Info


-or-


 

Live Flight TrackerFlight Track Log ✈ SWA3685 ✈ 06-May-2013 ✈ KMDW - KBOS

Flight Track Log - Related Links

Times and Time Zones

All times are in EDT time to prevent confusion due to time zone crossing. See the SWA3685 flight status page for this flight to view local times or setup timezone preferences in your user account.

Time Position Orientation Groundspeed Altitude Reporting Facility
EDT Latitude Longitude Course Direction KTS MPH feet Rate Location/Type
02:35PM 41.8281 -87.7444 86° East 222 255 3,400  Level Chicago Center
02:37PM 41.7667 -87.5179 90° East  Level FlightAware Approximate
02:37PM 41.8297 -87.5567 90° East 255 293 5,900  Level Chicago Center
02:38PM 41.8117 -87.4381 102° East 269 310 7,500 2,520 Climbing Chicago Center
02:39PM 41.7994 -87.3392 99° East 270 311 11,200 3,300 Climbing Chicago Center
02:40PM 41.7853 -87.2339 100° East 280 322 14,400 2,940 Climbing Chicago Center
02:41PM 41.7538 -86.7490 86° East  Level FlightAware Approximate
02:41PM 41.7697 -87.1194 100° East 302 348 17,300  Level Chicago Center
02:42PM 41.7633 -86.9875 94° East 354 407 18,400 1,920 Climbing Chicago Center
02:43PM 41.7653 -86.8106 89° East 394 453 21,400 2,640 Climbing Chicago Center
02:44PM 41.7656 -86.6569 90° East 408 470 23,900 2,280 Climbing Chicago Center
02:45PM 41.7675 -86.4989 89° East 421 484 26,100 1,800 Climbing Chicago Center
02:48PM 41.7854 -86.1950 78° East  Level FlightAware Approximate
02:52PM 41.9014 -85.5369 90° East 420 483 37,000  Level Chicago Center
02:53PM 41.9417 -85.3128 76° East 426 490 38,500 780 Climbing Cleveland Center
02:54PM 41.9542 -85.1600 84° East 426 490 39,000 180 Climbing Cleveland Center
02:55PM 41.9500 -85.1748 90° East  Level FlightAware Approximate
02:56PM 41.9501 -85.0248 90° East  Level FlightAware Approximate
02:56PM 41.9503 -84.9178 91° East 414 476 39,000  Level Chicago Center
02:56PM 41.9514 -84.8525 89° East 414 476 39,000  Level Cleveland Center
02:57PM 41.9334 -84.8862 90° East  Level FlightAware Approximate
02:58PM 41.9478 -84.5775 91° East 412 474 39,000  Level Chicago Center
02:58PM 41.9497 -84.5481 85° East 409 471 39,000  Level Cleveland Center
02:59PM 41.9467 -84.3914 91° East 409 471 39,000  Level Cleveland Center
03:01PM 41.9439 -84.1161 91° East 413 475 39,000  Level Chicago Center
03:03PM 41.9405 -83.8888 91° East  Level FlightAware Approximate
03:04PM 41.9567 -83.6408 91° East 405 466 39,000  Level Cleveland Center
03:05PM 41.9753 -83.4853 81° East 405 466 39,000  Level Cleveland Center
03:07PM 41.9932 -83.2803 80° East  Level FlightAware Approximate
03:08PM 42.0342 -83.0125 81° East 410 472 39,000  Level Cleveland Center
03:09PM 42.0519 -82.8594 81° East 410 472 39,000  Level Cleveland Center
03:11PM 42.0747 -82.6602 81° East  Level FlightAware Approximate
03:11PM 42.0892 -82.5444 81° East 410 472 39,000  Level Cleveland Center
03:13PM 42.1105 -82.3473 82° East  Level FlightAware Approximate
03:14PM 42.1183 -82.2619 81° East  Level FlightAware Approximate
03:14PM 42.1419 -82.0758 82° East 420 483 39,000  Level Cleveland Center
03:15PM 42.1606 -81.9222 81° East 421 484 39,000  Level Cleveland Center
03:16PM 42.1769 -81.7656 82° East 422 486 39,000  Level Cleveland Center
03:18PM 42.1970 -81.5654 82° East  Level FlightAware Approximate
03:18PM 42.2111 -81.4467 82° East 426 490 39,000  Level Cleveland Center
03:19PM 42.2267 -81.3039 82° East 426 490 39,000  Level Cleveland Center
03:20PM 42.2190 -81.3238 82° East  Level FlightAware Approximate
03:20PM 42.2419 -81.1442 83° East 426 490 39,000  Level Cleveland Center
03:22PM 42.2586 -80.9398 81° East  Level FlightAware Approximate
03:24PM 42.3058 -80.4878 83° East 426 490 39,000  Level Cleveland Center
03:26PM 42.3364 -80.1647 83° East 426 490 39,000  Level Cleveland Center
03:28PM 42.3683 -79.8442 82° East 426 490 39,000  Level Cleveland Center
03:29PM 42.3548 -79.9078 83° East  Level FlightAware Approximate
03:30PM 42.3673 -79.7600 83° East  Level FlightAware Approximate
03:30PM 42.3781 -79.6411 83° East  Level FlightAware Approximate
03:30PM 42.3928 -79.5233 83° East 426 490 39,000  Level Cleveland Center
03:31PM 42.3807 -79.6123 83° East  Level FlightAware Approximate
03:32PM 42.4104 -79.3188 83° East  Level FlightAware Approximate
03:34PM 42.6647 -79.0500 84° East 415 478 39,000  Level Cleveland Center
03:36PM 42.6640 -78.8432 90° East  Level Estimated
03:36PM 42.6808 -78.7219 90° East 411 473 39,000  Level Cleveland Center
03:38PM 42.6917 -78.3911 87° East 433 498 39,000  Level Cleveland Center
03:39PM 42.4941 -78.2823 83° East  Level FlightAware Approximate
03:40PM 42.5053 -78.1341 84° East  Level FlightAware Approximate
03:40PM 42.6834 -78.1849 93° East  Level FlightAware Approximate
03:40PM 42.7036 -78.0544 93° East 439 505 39,000  Level Cleveland Center
03:41PM 42.7083 -77.8933 88° East 439 505 39,000  Level Cleveland Center
03:42PM 42.7103 -77.7208 89° East 439 505 39,000  Level Cleveland Center
03:43PM 42.7144 -77.5539 88° East 439 505 39,000  Level Cleveland Center
03:44PM 42.7197 -77.3669 88° East 445 512 39,000  Level Cleveland Center
03:46PM 42.7193 -77.1925 90° East  Level FlightAware Approximate
03:46PM 42.7281 -76.9944 90° East 449 517 39,000  Level Boston Center
03:48PM 42.7210 -76.8203 93° East  Level FlightAware Approximate
03:48PM 42.7350 -76.6553 93° East 444 511 39,000  Level Boston Center
03:50PM 42.7359 -76.4808 90° East  Level FlightAware Approximate
03:50PM 42.7406 -76.3192 90° East 439 505 39,000  Level Boston Center
03:51PM 42.7417 -76.1667 89° East 439 505 39,000  Level Boston Center
03:52PM 42.7450 -75.9969 88° East 439 505 39,000 -480 Level Boston Center
03:54PM 42.7446 -75.8221 90° East  Level FlightAware Approximate
03:54PM 42.7467 -75.6606 90° East 439 505 37,700  Level Boston Center
03:56PM 42.7453 -75.4857 91° East  Level FlightAware Approximate
03:56PM 42.7475 -75.3183 91° East 439 505 37,000  Level Boston Center
03:57PM 42.7494 -75.1517 89° East 439 505 37,000  Level Boston Center
03:59PM 42.7497 -74.9622 90° East 446 513 37,000  Level Boston Center
04:00PM 42.7497 -74.7614 90° East 446 513 37,000  Level Boston Center
04:02PM 42.7500 -74.4222 90° East 440 506 37,000  Level Boston Center
04:04PM 42.7426 -74.1287 92° East  Level FlightAware Approximate
04:05PM 42.7453 -73.9131 92° East 440 506 37,000  Level Boston Center
04:06PM 42.7369 -73.7406 94° East 440 506 36,200 -840 Descending Boston Center
04:07PM 42.7258 -73.5933 96° East 440 506 35,400 -900 Descending Boston Center
04:08PM 42.7067 -73.4178 98° East 452 520 34,400 -1,080 Descending Boston Center
04:10PM 42.6717 -73.0783 98° East 452 520 32,200 -1,080 Descending Boston Center
04:11PM 42.6517 -72.8975 98° East 463 533 31,200 -1,740 Descending Boston Center
04:12PM 42.6333 -72.7278 98° East 463 533 28,800 -2,760 Descending Boston Center
04:13PM 42.6150 -72.5558 98° East 455 524 25,700 -2,700 Descending Boston Center
04:14PM 42.5900 -72.4061 103° East 434 499 23,500 -2,160 Descending Boston Center
04:16PM 42.5393 -72.1188 103° East  Level FlightAware Approximate
04:17PM 42.5369 -71.9694 103° East 382 440 17,200  Level Boston Center
04:19PM 42.5106 -71.6936 97° East 368 423 12,200 -2,160 Descending Boston Center
04:19PM 42.5000 -71.5500 96° East 361 415 11,000 -840 Descending KA90
04:21PM 42.4833 -71.3167 95° East 309 356 10,000 -840 Descending KA90
04:22PM 42.4667 -71.2000 101° East 291 335 8,600 -1,020 Descending KA90
04:24PM 42.4333 -71.0167 104° East 242 278 7,000 -600 Descending KA90
04:25PM 42.3833 -70.9833 154° Southeast 224 258 6,900 -600 Descending KA90
04:27PM 42.2667 -70.9500 168° South 207 238 5,200 -660 Descending KA90
04:28PM 42.2167 -70.9667 194° South 206 237 5,000 -120 Descending KA90
04:29PM 42.1667 -71.0000 206° Southwest 208 239 5,000 -360 Level KA90
04:31PM 42.2922 -71.0000 North  Level FlightAware Approximate
04:32PM 42.0964 -71.0886 North 145 167 4,000  Level Boston Center
04:33PM 42.1319 -71.1103 336° Northwest 154 177 3,400 -480 Descending Boston Center
04:34PM 42.1861 -71.0897 16° North 159 183 3,000 -600 Descending Boston Center
04:34PM 42.2333 -71.0667 20° North 191 220 2,300 -840 Descending KA90
04:36PM 42.3167 -71.0333 16° North 142 163 800 -780 Descending KA90